createdAt,value
2022-08-11T00:02:28.594Z,1.90
2022-08-11T00:05:18.541Z,2.00
2022-08-11T00:08:05.534Z,2.20
2022-08-11T00:10:55.506Z,2.00
2022-08-11T00:13:46.509Z,2.37
2022-08-11T00:16:33.308Z,2.00
2022-08-11T00:20:13.923Z,2.23
2022-08-11T00:22:30.350Z,2.23
2022-08-11T00:25:21.528Z,1.97
2022-08-11T00:28:27.216Z,1.90
2022-08-11T00:31:33.990Z,2.17
2022-08-11T00:34:23.530Z,2.20
2022-08-11T00:37:16.945Z,2.27
2022-08-11T00:40:10.098Z,1.97
2022-08-11T00:43:21.121Z,2.40
2022-08-11T00:46:16.779Z,2.20
2022-08-11T00:49:19.542Z,2.53
2022-08-11T00:52:29.605Z,2.50
2022-08-11T00:55:40.693Z,2.47
2022-08-11T00:59:35.089Z,2.00
2022-08-11T01:02:59.591Z,2.07
2022-08-11T01:05:56.331Z,2.00
2022-08-11T01:09:07.592Z,2.10
2022-08-11T01:11:57.797Z,2.20
2022-08-11T01:15:15.070Z,2.20
2022-08-11T01:18:28.402Z,2.30
2022-08-11T01:21:24.033Z,2.60
2022-08-11T01:24:44.689Z,2.27
2022-08-11T01:28:07.493Z,2.17
2022-08-11T01:31:18.367Z,2.00
2022-08-11T01:34:26.385Z,2.20
2022-08-11T01:37:31.553Z,2.00
2022-08-11T01:40:53.151Z,2.20
2022-08-11T01:44:37.435Z,2.27
2022-08-11T01:47:53.336Z,2.40
2022-08-11T01:51:03.327Z,2.30
2022-08-11T01:54:13.015Z,2.30
2022-08-11T01:57:38.423Z,2.37
2022-08-11T02:00:30.415Z,2.33
2022-08-11T02:03:44.568Z,2.53
2022-08-11T02:06:56.342Z,2.10
2022-08-11T02:10:35.338Z,2.50
2022-08-11T02:13:46.151Z,2.40
2022-08-11T02:16:50.974Z,2.17
2022-08-11T02:20:13.499Z,2.27
2022-08-11T02:24:05.084Z,2.27
2022-08-11T02:27:07.633Z,2.90
2022-08-11T02:30:07.193Z,2.67
2022-08-11T02:33:23.250Z,8.50
2022-08-11T02:36:23.715Z,5.50
2022-08-11T02:39:14.800Z,3.60
2022-08-11T02:42:32.587Z,3.13
2022-08-11T02:45:47.251Z,2.93
2022-08-11T02:49:05.302Z,2.83
2022-08-11T02:52:22.858Z,2.80
2022-08-11T02:55:56.461Z,3.00
2022-08-11T02:58:44.230Z,2.67
2022-08-11T03:01:45.629Z,2.50
2022-08-11T03:04:48.127Z,2.80
2022-08-11T03:07:47.897Z,2.60
2022-08-11T03:10:44.147Z,2.30
2022-08-11T03:13:53.410Z,2.90
2022-08-11T03:16:58.410Z,2.93
2022-08-11T03:19:44.768Z,2.83
2022-08-11T03:22:48.506Z,2.50
2022-08-11T03:26:05.546Z,2.60
2022-08-11T03:28:56.950Z,2.60
2022-08-11T03:31:57.963Z,2.57
2022-08-11T03:34:46.278Z,2.27
2022-08-11T03:37:50.518Z,2.60
2022-08-11T03:40:58.626Z,2.87
2022-08-11T03:43:58.284Z,2.30
2022-08-11T03:47:09.125Z,2.70
2022-08-11T03:50:17.215Z,2.90
2022-08-11T03:53:29.512Z,2.90
2022-08-11T03:56:53.463Z,2.70
2022-08-11T04:00:14.755Z,3.30
2022-08-11T04:03:31.357Z,2.70
2022-08-11T04:06:36.819Z,2.60
2022-08-11T04:10:00.758Z,2.80
2022-08-11T04:13:08.489Z,2.90
2022-08-11T04:16:16.577Z,2.70
2022-08-11T04:19:21.366Z,3.27
2022-08-11T04:22:37.501Z,2.83
2022-08-11T04:25:58.266Z,2.80
2022-08-11T04:29:12.213Z,2.70
2022-08-11T04:32:18.163Z,2.60
2022-08-11T04:35:28.431Z,3.10
2022-08-11T04:38:36.700Z,3.27
2022-08-11T04:42:22.524Z,2.60
2022-08-11T04:45:45.807Z,2.90
2022-08-11T04:49:33.647Z,2.97
2022-08-11T04:52:57.688Z,2.70
2022-08-11T04:56:24.455Z,3.00
2022-08-11T04:59:32.592Z,2.87
2022-08-11T05:02:22.123Z,3.00
2022-08-11T05:05:56.372Z,3.40
2022-08-11T05:09:23.833Z,2.90
2022-08-11T05:12:36.174Z,2.67
2022-08-11T05:16:04.519Z,2.50
2022-08-11T05:19:11.829Z,2.83
2022-08-11T05:22:24.184Z,2.50
2022-08-11T05:26:45.212Z,2.40
2022-08-11T05:29:20.699Z,2.33
2022-08-11T05:32:29.391Z,2.47
2022-08-11T05:36:00.217Z,2.90
2022-08-11T05:38:48.482Z,2.50
2022-08-11T05:41:53.875Z,2.40
2022-08-11T05:44:59.128Z,3.27
2022-08-11T05:48:08.449Z,2.47
2022-08-11T05:51:16.618Z,2.70
2022-08-11T05:54:29.160Z,2.40
2022-08-11T05:57:48.476Z,2.60
2022-08-11T06:00:29.399Z,2.30
2022-08-11T06:03:30.649Z,2.70
2022-08-11T06:06:17.113Z,3.07
2022-08-11T06:09:03.629Z,3.00
2022-08-11T06:11:50.739Z,2.67
2022-08-11T06:14:43.238Z,2.80
2022-08-11T06:17:38.814Z,2.60
2022-08-11T06:20:26.394Z,2.47
2022-08-11T06:23:15.374Z,3.00
2022-08-11T06:26:02.407Z,3.43
2022-08-11T06:28:49.270Z,2.90
2022-08-11T06:31:36.438Z,2.90
2022-08-11T06:34:34.087Z,2.93
2022-08-11T06:37:43.449Z,2.80
2022-08-11T06:41:10.876Z,2.90
2022-08-11T06:44:13.038Z,3.00
2022-08-11T06:47:11.386Z,2.60
2022-08-11T06:50:19.130Z,3.13
2022-08-11T06:53:09.952Z,3.00
2022-08-11T06:56:18.229Z,2.50
2022-08-11T06:59:23.594Z,2.80
2022-08-11T07:02:15.459Z,2.90
2022-08-11T07:05:08.351Z,2.87
2022-08-11T07:08:35.811Z,3.13
2022-08-11T07:12:12.522Z,2.83
2022-08-11T07:15:22.190Z,3.73
2022-08-11T07:18:30.890Z,2.30
2022-08-11T07:22:03.087Z,3.07
2022-08-11T07:25:32.869Z,2.57
2022-08-11T07:28:43.412Z,2.93
2022-08-11T07:31:32.879Z,2.67
2022-08-11T07:34:32.643Z,2.40
2022-08-11T07:37:20.789Z,2.77
2022-08-11T07:40:07.846Z,2.83
2022-08-11T07:42:57.042Z,2.93
2022-08-11T07:46:05.621Z,2.87
2022-08-11T07:49:11.980Z,2.57
2022-08-11T07:52:17.529Z,2.30
2022-08-11T07:55:14.258Z,2.70
2022-08-11T07:58:20.446Z,2.73
2022-08-11T08:01:25.985Z,2.70
2022-08-11T08:04:38.288Z,3.60
2022-08-11T08:07:43.302Z,2.70
2022-08-11T08:10:50.207Z,2.70
2022-08-11T08:13:56.474Z,2.83
2022-08-11T08:17:01.861Z,2.70
2022-08-11T08:19:49.170Z,3.63
2022-08-11T08:22:39.080Z,2.37
2022-08-11T08:25:28.688Z,2.80
2022-08-11T08:28:17.638Z,2.60
2022-08-11T08:31:04.663Z,2.80
2022-08-11T08:33:51.992Z,2.47
2022-08-11T08:36:42.566Z,3.00
2022-08-11T08:39:29.096Z,2.53
2022-08-11T08:42:25.184Z,2.90
2022-08-11T08:45:18.493Z,2.50
2022-08-11T08:48:16.843Z,2.73
2022-08-11T08:51:29.277Z,3.40
2022-08-11T08:54:38.083Z,2.95
2022-08-11T08:57:28.923Z,3.00
2022-08-11T09:00:20.852Z,2.70
2022-08-11T09:03:38.240Z,2.97
2022-08-11T09:06:17.643Z,2.60
2022-08-11T09:09:04.936Z,2.53
2022-08-11T09:11:55.620Z,2.72
2022-08-11T09:15:00.784Z,2.17
2022-08-11T09:17:50.481Z,2.25
2022-08-11T09:20:38.541Z,2.00
2022-08-11T09:27:03.903Z,2.13
2022-08-11T09:29:51.595Z,3.25
2022-08-11T09:32:40.490Z,2.08
2022-08-11T09:35:28.770Z,2.25
2022-08-11T09:38:35.892Z,2.13
2022-08-11T09:41:25.603Z,2.05
2022-08-11T09:44:32.543Z,2.00
2022-08-11T09:47:29.461Z,2.25
2022-08-11T09:50:17.041Z,2.53
2022-08-11T09:53:34.804Z,2.17
2022-08-11T09:56:36.369Z,2.13
2022-08-11T09:59:23.962Z,2.10
2022-08-11T10:02:11.307Z,2.45
2022-08-11T10:05:18.791Z,2.00
2022-08-11T10:08:07.214Z,2.03
2022-08-11T10:10:55.296Z,2.20
2022-08-11T10:14:33.923Z,1.95
2022-08-11T10:17:10.496Z,2.00
2022-08-11T10:20:04.742Z,1.98
2022-08-11T10:23:10.723Z,1.85
2022-08-11T10:26:24.310Z,2.00
2022-08-11T10:29:36.819Z,1.95
2022-08-11T10:32:58.968Z,2.15
2022-08-11T10:35:46.160Z,2.00
2022-08-11T10:38:33.996Z,1.80
2022-08-11T10:42:02.767Z,1.80
2022-08-11T10:44:50.595Z,2.10
2022-08-11T10:47:38.343Z,1.90
2022-08-11T10:50:52.640Z,2.13
2022-08-11T10:54:00.908Z,1.92
2022-08-11T10:57:05.975Z,2.10
2022-08-11T10:59:54.998Z,2.10
2022-08-11T11:02:43.266Z,2.03
2022-08-11T11:05:31.067Z,2.13
2022-08-11T11:08:42.861Z,2.17
2022-08-11T11:11:53.631Z,2.25
2022-08-11T11:15:01.424Z,1.90
2022-08-11T11:18:01.926Z,1.95
2022-08-11T11:21:00.100Z,2.05
2022-08-11T11:23:56.103Z,3.28
2022-08-11T11:26:57.009Z,1.88
2022-08-11T11:29:57.325Z,1.85
2022-08-11T11:32:58.512Z,1.98
2022-08-11T11:36:03.209Z,1.77
2022-08-11T11:38:50.275Z,2.15
2022-08-11T11:41:37.911Z,2.17
2022-08-11T11:44:25.588Z,1.90
2022-08-11T11:47:13.676Z,2.10
2022-08-11T11:50:00.407Z,1.98
2022-08-11T11:52:46.733Z,1.80
2022-08-11T11:55:34.111Z,2.08
2022-08-11T11:58:40.038Z,1.90
2022-08-11T12:01:27.157Z,1.63
2022-08-11T12:04:16.141Z,2.10
2022-08-11T12:07:21.471Z,1.80
2022-08-11T12:10:08.883Z,2.60
2022-08-11T12:13:14.334Z,1.80
2022-08-11T12:16:34.806Z,1.80
2022-08-11T12:19:14.410Z,1.85
2022-08-11T12:22:19.404Z,2.00
2022-08-11T12:25:25.277Z,1.83
2022-08-11T12:28:11.642Z,1.77
2022-08-11T12:30:58.583Z,1.92
2022-08-11T12:33:47.107Z,1.80
2022-08-11T12:36:36.806Z,1.80
2022-08-11T12:40:16.264Z,2.08
2022-08-11T12:43:21.120Z,1.80
2022-08-11T12:46:14.265Z,1.90
2022-08-11T12:49:28.579Z,1.95
2022-08-11T12:52:22.185Z,1.70
2022-08-11T12:55:13.830Z,1.67
2022-08-11T12:58:17.161Z,1.90
2022-08-11T13:01:22.453Z,1.70
2022-08-11T13:04:28.263Z,2.10
2022-08-11T13:07:15.802Z,1.90
2022-08-11T13:10:05.497Z,2.15
2022-08-11T13:12:52.106Z,1.80
2022-08-11T13:15:38.841Z,1.90
2022-08-11T13:18:27.645Z,1.85
2022-08-11T13:21:20.101Z,1.65
2022-08-11T13:24:07.700Z,1.92
2022-08-11T13:26:53.926Z,1.75
2022-08-11T13:29:42.997Z,2.13
2022-08-11T13:32:29.657Z,1.90
2022-08-11T13:35:18.026Z,1.77
2022-08-11T13:38:27.109Z,1.65
2022-08-11T13:41:31.178Z,1.95
2022-08-11T13:44:24.806Z,1.70
2022-08-11T13:47:14.317Z,1.60
2022-08-11T13:50:01.551Z,2.63
2022-08-11T13:52:53.174Z,1.70
2022-08-11T13:55:51.743Z,1.40
2022-08-11T13:58:40.746Z,1.90
2022-08-11T14:02:22.608Z,1.70
2022-08-11T14:04:45.472Z,1.80
2022-08-11T14:07:37.969Z,1.80
2022-08-11T14:10:28.943Z,1.80
2022-08-11T14:13:41.410Z,2.13
2022-08-11T14:16:33.270Z,2.47
2022-08-11T14:19:22.711Z,1.55
2022-08-11T14:22:11.689Z,1.67
2022-08-11T14:24:58.770Z,1.70
2022-08-11T14:28:30.973Z,2.10
2022-08-11T14:30:58.978Z,1.77
2022-08-11T14:34:00.081Z,1.90
2022-08-11T14:36:52.591Z,1.67
2022-08-11T14:39:46.049Z,1.63
2022-08-11T14:43:11.570Z,1.65
2022-08-11T14:46:17.039Z,1.70
2022-08-11T14:49:04.050Z,1.80
2022-08-11T14:51:54.965Z,1.90
2022-08-11T14:55:05.199Z,1.70
2022-08-11T14:58:04.698Z,1.42
2022-08-11T15:00:54.452Z,1.58
2022-08-11T15:03:41.039Z,1.80
2022-08-11T15:06:47.754Z,2.00
2022-08-11T15:09:36.272Z,1.75
2022-08-11T15:12:31.674Z,1.90
2022-08-11T15:15:39.015Z,1.60
2022-08-11T15:18:26.507Z,1.70
2022-08-11T15:21:31.489Z,1.70
2022-08-11T15:24:20.640Z,1.63
2022-08-11T15:27:35.166Z,1.48
2022-08-11T15:30:42.462Z,1.80
2022-08-11T15:33:50.546Z,1.98
2022-08-11T15:36:56.367Z,1.70
2022-08-11T15:40:05.943Z,1.70
2022-08-11T15:43:20.347Z,1.70
2022-08-11T15:46:11.996Z,1.50
2022-08-11T15:49:07.629Z,1.60
2022-08-11T15:52:03.367Z,1.58
2022-08-11T15:54:51.179Z,1.55
2022-08-11T15:57:57.603Z,1.60
2022-08-11T16:01:09.246Z,1.67
2022-08-11T16:04:14.238Z,1.90
2022-08-11T16:07:12.835Z,1.60
2022-08-11T16:10:10.732Z,1.70
2022-08-11T16:13:03.866Z,2.25
2022-08-11T16:16:14.899Z,1.80
2022-08-11T16:19:04.653Z,1.80
2022-08-11T16:21:53.260Z,1.60
2022-08-11T16:27:03.822Z,1.75
2022-08-11T16:28:07.729Z,1.70
2022-08-11T16:30:55.428Z,1.77
2022-08-11T16:33:48.332Z,1.80
2022-08-11T16:36:55.728Z,1.80
2022-08-11T16:39:42.702Z,1.80
2022-08-11T16:43:04.347Z,1.73
2022-08-11T16:46:19.168Z,1.60
2022-08-11T16:49:10.593Z,1.88
2022-08-11T16:51:57.471Z,1.98
2022-08-11T16:54:44.370Z,1.63
2022-08-11T16:57:52.789Z,1.90
2022-08-11T17:00:40.784Z,1.70
2022-08-11T17:03:46.094Z,1.75
2022-08-11T17:06:52.853Z,1.70
2022-08-11T17:09:57.640Z,1.70
2022-08-11T17:13:04.616Z,1.70
2022-08-11T17:16:10.117Z,1.63
2022-08-11T17:20:41.240Z,2.05
2022-08-11T17:22:53.078Z,1.60
2022-08-11T17:25:59.295Z,1.65
2022-08-11T17:28:51.994Z,1.80
2022-08-11T17:31:56.921Z,1.90
2022-08-11T17:35:04.575Z,1.60
2022-08-11T17:37:52.490Z,1.90
2022-08-11T17:41:01.861Z,1.90
2022-08-11T17:44:08.785Z,1.90
2022-08-11T17:47:13.700Z,1.92
2022-08-11T17:50:09.388Z,1.95
2022-08-11T17:53:22.711Z,2.00
2022-08-11T17:56:28.570Z,1.98
2022-08-11T17:59:35.295Z,1.88
2022-08-11T18:02:46.162Z,2.08
2022-08-11T18:05:35.820Z,1.55
2022-08-11T18:08:42.033Z,1.77
2022-08-11T18:12:06.695Z,2.05
2022-08-11T18:15:16.647Z,2.08
2022-08-11T18:18:21.874Z,2.05
2022-08-11T18:21:27.787Z,2.28
2022-08-11T18:24:34.591Z,2.28
2022-08-11T18:27:41.198Z,2.10
2022-08-11T18:30:50.048Z,1.80
2022-08-11T18:34:07.307Z,2.38
2022-08-11T18:37:29.053Z,1.70
2022-08-11T18:40:46.790Z,8.27
2022-08-11T18:43:57.744Z,5.10
2022-08-11T18:47:07.916Z,5.07
2022-08-11T18:50:15.623Z,3.13
2022-08-11T18:53:29.539Z,2.78
2022-08-11T18:56:38.147Z,2.35
2022-08-11T18:59:46.996Z,2.10
2022-08-11T19:02:55.639Z,2.22
2022-08-11T19:06:35.902Z,2.47
2022-08-11T19:09:35.220Z,2.30
2022-08-11T19:12:43.302Z,2.30
2022-08-11T19:15:50.204Z,2.00
2022-08-11T19:18:57.783Z,2.08
2022-08-11T19:22:03.803Z,2.47
2022-08-11T19:25:10.405Z,2.20
2022-08-11T19:28:17.144Z,2.20
2022-08-11T19:31:22.759Z,2.37
2022-08-11T19:34:29.092Z,2.20
2022-08-11T19:37:35.074Z,1.97
2022-08-11T19:40:51.247Z,2.20
2022-08-11T19:43:57.496Z,2.33
2022-08-11T19:47:02.870Z,2.40
2022-08-11T19:50:14.994Z,2.50
2022-08-11T19:53:23.451Z,2.37
2022-08-11T19:56:29.354Z,2.50
2022-08-11T19:59:35.673Z,2.33
2022-08-11T20:02:41.015Z,2.40
2022-08-11T20:05:59.666Z,2.77
2022-08-11T20:09:07.443Z,2.37
2022-08-11T20:12:16.530Z,2.20
2022-08-11T20:15:27.090Z,1.90
2022-08-11T20:18:33.831Z,2.20
2022-08-11T20:21:40.205Z,2.10
2022-08-11T20:24:47.404Z,1.90
2022-08-11T20:27:55.707Z,2.00
2022-08-11T20:31:04.873Z,2.07
2022-08-11T20:34:10.553Z,2.30
2022-08-11T20:37:16.837Z,2.93
2022-08-11T20:40:23.755Z,2.33
2022-08-11T20:44:07.533Z,2.73
2022-08-11T20:47:03.461Z,2.47
2022-08-11T20:50:09.734Z,2.60
2022-08-11T20:53:27.499Z,2.57
2022-08-11T20:56:33.611Z,2.40
2022-08-11T20:59:49.464Z,2.67
2022-08-11T21:02:59.099Z,2.30
2022-08-11T21:06:10.618Z,2.43
2022-08-11T21:09:19.875Z,3.53
2022-08-11T21:12:25.286Z,2.70
2022-08-11T21:15:47.438Z,2.73
2022-08-11T21:19:03.238Z,2.80
2022-08-11T21:22:08.625Z,2.80
2022-08-11T21:25:16.364Z,3.13
2022-08-11T21:28:24.532Z,2.73
2022-08-11T21:31:29.875Z,2.97
2022-08-11T21:34:37.749Z,3.10
2022-08-11T21:37:44.460Z,2.37
2022-08-11T21:40:59.038Z,2.40
2022-08-11T21:44:08.494Z,2.60
2022-08-11T21:47:17.406Z,3.00
2022-08-11T21:50:25.970Z,2.63
2022-08-11T21:53:33.645Z,3.93
2022-08-11T21:56:40.355Z,2.50
2022-08-11T22:00:11.885Z,2.67
2022-08-11T22:03:17.645Z,2.53
2022-08-11T22:06:23.494Z,2.53
2022-08-11T22:09:28.695Z,2.40
2022-08-11T22:12:34.930Z,2.43
2022-08-11T22:15:41.417Z,2.77
2022-08-11T22:18:46.714Z,2.70
2022-08-11T22:22:01.712Z,2.60
2022-08-11T22:25:16.170Z,2.50
2022-08-11T22:28:23.065Z,3.03
2022-08-11T22:31:30.373Z,2.93
2022-08-11T22:34:44.765Z,2.73
2022-08-11T22:37:59.361Z,2.93
2022-08-11T22:41:04.321Z,2.70
2022-08-11T22:44:09.138Z,2.77
2022-08-11T22:47:18.851Z,3.47
2022-08-11T22:50:26.725Z,2.30
2022-08-11T22:53:58.115Z,2.07
2022-08-11T22:56:59.085Z,2.00
2022-08-11T23:00:04.273Z,2.40
2022-08-11T23:03:10.231Z,2.30
2022-08-11T23:06:36.364Z,2.60
2022-08-11T23:09:42.817Z,2.40
2022-08-11T23:12:48.222Z,2.27
2022-08-11T23:15:53.798Z,2.00
2022-08-11T23:19:00.044Z,2.50
2022-08-11T23:22:06.878Z,2.40
2022-08-11T23:25:17.937Z,2.13
2022-08-11T23:28:26.251Z,2.50
2022-08-11T23:31:51.090Z,2.20
2022-08-11T23:35:40.451Z,2.70
2022-08-11T23:38:28.209Z,2.47
2022-08-11T23:41:34.396Z,2.33
2022-08-11T23:44:39.052Z,2.27
2022-08-11T23:47:50.471Z,2.00
2022-08-11T23:50:56.395Z,2.30
2022-08-11T23:54:07.867Z,2.20
2022-08-11T23:57:13.589Z,2.33
